createdAt,value
2018-04-13T00:00:23.343Z,44.78
2018-04-13T00:01:26.838Z,44.00
2018-04-13T00:02:29.902Z,44.75
2018-04-13T00:03:33.030Z,44.38
2018-04-13T00:04:36.081Z,46.20
2018-04-13T00:05:39.190Z,48.15
2018-04-13T00:06:42.271Z,46.92
2018-04-13T00:07:45.422Z,45.75
2018-04-13T00:08:48.464Z,47.10
2018-04-13T00:09:51.540Z,47.47
2018-04-13T00:10:54.635Z,46.70
2018-04-13T00:11:57.682Z,45.97
2018-04-13T00:13:00.835Z,48.67
2018-04-13T00:14:03.866Z,50.12
2018-04-13T00:15:07.083Z,49.75
2018-04-13T00:16:10.625Z,48.92
2018-04-13T00:17:13.644Z,47.28
2018-04-13T00:18:16.752Z,47.10
2018-04-13T00:19:19.832Z,47.08
2018-04-13T00:20:22.886Z,46.78
2018-04-13T00:21:25.934Z,50.08
2018-04-13T00:22:28.965Z,49.72
2018-04-13T00:23:32.043Z,48.47
2018-04-13T00:24:35.121Z,50.22
2018-04-13T00:25:38.247Z,50.03
2018-04-13T00:26:41.282Z,50.42
2018-04-13T00:27:44.324Z,50.75
2018-04-13T00:28:47.438Z,53.58
2018-04-13T00:29:50.900Z,50.67
2018-04-13T00:30:54.007Z,50.63
2018-04-13T00:31:57.036Z,49.95
2018-04-13T00:33:00.112Z,48.40
2018-04-13T00:34:03.259Z,52.42
2018-04-13T00:35:06.292Z,47.92
2018-04-13T00:36:09.332Z,49.60
2018-04-13T00:37:12.426Z,49.35
2018-04-13T00:38:15.479Z,50.95
2018-04-13T00:39:18.632Z,50.00
2018-04-13T00:40:21.787Z,49.20
2018-04-13T00:41:24.837Z,49.85
2018-04-13T00:42:27.867Z,49.60
2018-04-13T00:43:30.895Z,50.75
2018-04-13T00:44:34.602Z,50.95
2018-04-13T00:45:37.834Z,52.70
2018-04-13T00:46:40.931Z,52.90
2018-04-13T00:47:44.024Z,52.80
2018-04-13T00:48:47.055Z,50.97
2018-04-13T00:49:50.133Z,51.20
2018-04-13T00:50:53.367Z,49.63
2018-04-13T00:51:56.696Z,50.70
2018-04-13T00:53:11.463Z,52.05
2018-04-13T00:54:14.546Z,51.42
2018-04-13T00:55:17.635Z,50.05
2018-04-13T00:56:20.665Z,51.85
2018-04-13T00:57:23.815Z,49.72
2018-04-13T00:58:26.930Z,51.03
2018-04-13T00:59:30.009Z,50.05
2018-04-13T01:00:33.141Z,51.08
2018-04-13T01:01:36.195Z,50.65
2018-04-13T01:02:39.271Z,52.45
2018-04-13T01:03:42.443Z,52.20
2018-04-13T01:04:45.535Z,49.88
2018-04-13T01:05:48.615Z,51.88
2018-04-13T01:06:51.894Z,52.78
2018-04-13T01:07:54.999Z,52.53
2018-04-13T01:08:58.112Z,47.70
2018-04-13T01:10:01.146Z,51.75
2018-04-13T01:11:04.312Z,53.33
2018-04-13T01:12:07.422Z,52.92
2018-04-13T01:13:10.610Z,51.37
2018-04-13T01:14:13.737Z,51.50
2018-04-13T01:15:16.828Z,53.30
2018-04-13T01:16:19.932Z,51.83
2018-04-13T01:17:23.081Z,53.75
2018-04-13T01:18:26.359Z,53.05
2018-04-13T01:19:29.669Z,54.55
2018-04-13T01:20:32.726Z,53.55
2018-04-13T01:21:35.784Z,48.67
2018-04-13T01:22:38.862Z,50.63
2018-04-13T01:23:41.908Z,52.78
2018-04-13T01:24:45.019Z,52.67
2018-04-13T01:25:48.058Z,52.30
2018-04-13T01:26:51.149Z,52.28
2018-04-13T01:27:54.478Z,54.95
2018-04-13T01:28:57.577Z,55.20
2018-04-13T01:30:00.714Z,54.38
2018-04-13T01:31:03.869Z,53.65
2018-04-13T01:32:07.418Z,50.10
2018-04-13T01:33:10.467Z,49.85
2018-04-13T01:34:13.762Z,48.90
2018-04-13T01:35:16.958Z,52.25
2018-04-13T01:36:20.020Z,54.05
2018-04-13T01:37:23.145Z,53.13
2018-04-13T01:38:26.462Z,50.38
2018-04-13T01:39:29.553Z,50.88
2018-04-13T01:40:32.611Z,50.10
2018-04-13T01:41:35.706Z,50.30
2018-04-13T01:42:39.035Z,50.83
2018-04-13T01:43:42.087Z,52.78
2018-04-13T01:44:45.343Z,52.62
2018-04-13T01:45:48.528Z,51.85
2018-04-13T01:46:51.839Z,54.05
2018-04-13T01:47:55.002Z,51.90
2018-04-13T01:48:58.049Z,53.38
2018-04-13T01:50:01.147Z,53.30
2018-04-13T01:51:04.501Z,53.78
2018-04-13T01:52:07.579Z,49.75
2018-04-13T01:53:10.671Z,52.35
2018-04-13T01:54:13.804Z,51.53
2018-04-13T01:55:17.232Z,51.70
2018-04-13T01:56:20.305Z,53.22
2018-04-13T01:57:23.345Z,50.95
2018-04-13T01:58:26.680Z,51.37
2018-04-13T01:59:29.753Z,53.17
2018-04-13T02:00:32.813Z,51.90
2018-04-13T02:01:36.192Z,52.25
2018-04-13T02:02:39.226Z,51.40
2018-04-13T02:03:42.304Z,55.67
2018-04-13T02:04:45.365Z,53.15
2018-04-13T02:05:48.473Z,52.88
2018-04-13T02:06:51.534Z,54.80
2018-04-13T02:07:54.648Z,55.33
2018-04-13T02:08:57.794Z,52.75
2018-04-13T02:10:00.827Z,52.40
2018-04-13T02:11:03.995Z,52.65
2018-04-13T02:12:07.066Z,54.65
2018-04-13T02:13:10.171Z,55.30
2018-04-13T02:14:13.679Z,53.80
2018-04-13T02:15:16.920Z,54.83
2018-04-13T02:16:20.168Z,56.35
2018-04-13T02:17:23.258Z,57.35
2018-04-13T02:18:26.779Z,58.08
2018-04-13T02:19:29.820Z,60.75
2018-04-13T02:20:32.922Z,60.35
2018-04-13T02:21:36.228Z,62.40
2018-04-13T02:22:39.326Z,62.97
2018-04-13T02:23:42.369Z,62.15
2018-04-13T02:24:45.452Z,60.63
2018-04-13T02:25:48.561Z,62.90
2018-04-13T02:26:51.610Z,60.70
2018-04-13T02:27:54.731Z,63.35
2018-04-13T02:28:57.979Z,58.97
2018-04-13T02:30:01.074Z,60.30
2018-04-13T02:31:04.135Z,59.33
2018-04-13T02:32:07.275Z,60.55
2018-04-13T02:33:10.439Z,57.97
2018-04-13T02:34:13.729Z,57.15
2018-04-13T02:35:16.843Z,57.95
2018-04-13T02:36:19.899Z,57.33
2018-04-13T02:37:22.973Z,58.72
2018-04-13T02:38:26.251Z,60.03
2018-04-13T02:39:29.293Z,56.75
2018-04-13T02:40:32.370Z,54.63
2018-04-13T02:41:35.422Z,56.83
2018-04-13T02:42:39.024Z,56.65
2018-04-13T02:43:42.292Z,56.92
2018-04-13T02:44:45.347Z,55.80
2018-04-13T02:45:48.767Z,58.30
2018-04-13T02:46:51.846Z,58.28
2018-04-13T02:47:54.943Z,56.78
2018-04-13T02:48:58.014Z,55.60
2018-04-13T02:50:01.097Z,58.92
2018-04-13T02:51:04.372Z,55.45
2018-04-13T02:52:07.457Z,55.08
2018-04-13T02:53:10.502Z,58.75
2018-04-13T02:54:13.588Z,56.00
2018-04-13T02:55:16.702Z,56.60
2018-04-13T02:57:29.064Z,55.92
2018-04-13T02:58:32.127Z,55.33
2018-04-13T02:59:35.186Z,58.08
2018-04-13T03:00:38.647Z,55.17
2018-04-13T03:01:41.762Z,54.10
2018-04-13T03:02:45.079Z,54.35
2018-04-13T03:03:48.186Z,57.03
2018-04-13T03:04:51.239Z,53.92
2018-04-13T03:05:54.415Z,56.60
2018-04-13T03:06:57.521Z,56.20
2018-04-13T03:08:00.624Z,53.33
2018-04-13T03:09:03.696Z,55.42
2018-04-13T03:10:06.805Z,55.20
2018-04-13T03:11:09.903Z,56.37
2018-04-13T03:12:12.994Z,56.30
2018-04-13T03:13:16.044Z,54.47
2018-04-13T03:14:19.152Z,58.10
2018-04-13T03:15:22.290Z,59.20
2018-04-13T03:16:25.335Z,57.42
2018-04-13T03:17:28.393Z,55.05
2018-04-13T03:18:31.456Z,56.13
2018-04-13T03:19:34.555Z,55.78
2018-04-13T03:20:37.585Z,55.63
2018-04-13T03:21:40.718Z,55.33
2018-04-13T03:22:44.127Z,53.13
2018-04-13T03:23:47.254Z,54.20
2018-04-13T03:24:50.295Z,56.22
2018-04-13T03:25:53.373Z,54.58
2018-04-13T03:26:56.712Z,58.00
2018-04-13T03:27:59.868Z,56.33
2018-04-13T03:29:02.898Z,57.05
2018-04-13T03:30:06.266Z,57.00
2018-04-13T03:31:09.411Z,55.88
2018-04-13T03:32:12.502Z,55.92
2018-04-13T03:33:15.705Z,56.53
2018-04-13T03:34:18.783Z,57.33
2018-04-13T03:35:22.061Z,55.03
2018-04-13T03:36:25.113Z,55.00
2018-04-13T03:37:28.158Z,57.28
2018-04-13T03:38:31.235Z,57.05
2018-04-13T03:39:34.618Z,54.83
2018-04-13T03:40:37.663Z,54.58
2018-04-13T03:41:40.710Z,59.33
2018-04-13T03:42:43.777Z,56.37
2018-04-13T03:43:46.842Z,57.67
2018-04-13T03:44:49.894Z,57.72
2018-04-13T03:45:53.027Z,57.60
2018-04-13T03:46:56.126Z,57.22
2018-04-13T03:47:59.208Z,56.72
2018-04-13T03:49:02.287Z,56.55
2018-04-13T03:50:05.473Z,53.60
2018-04-13T03:51:09.479Z,56.60
2018-04-13T03:52:12.792Z,53.97
2018-04-13T03:53:15.964Z,55.65
2018-04-13T03:54:19.312Z,57.78
2018-04-13T03:55:22.821Z,54.95
2018-04-13T03:56:25.879Z,56.37
2018-04-13T03:57:29.037Z,54.83
2018-04-13T03:58:32.130Z,52.92
2018-04-13T03:59:35.218Z,53.53
2018-04-13T04:00:38.279Z,52.90
2018-04-13T04:01:41.368Z,52.62
2018-04-13T04:02:44.434Z,52.35
2018-04-13T04:03:47.533Z,56.42
2018-04-13T04:04:50.600Z,52.25
2018-04-13T04:05:53.831Z,52.53
2018-04-13T04:06:56.906Z,53.05
2018-04-13T04:07:59.964Z,53.47
2018-04-13T04:09:03.055Z,55.58
2018-04-13T04:10:06.238Z,49.95
2018-04-13T04:11:09.292Z,53.50
2018-04-13T04:12:12.397Z,51.03
2018-04-13T04:13:15.520Z,50.92
2018-04-13T04:14:18.581Z,52.88
2018-04-13T04:15:21.675Z,51.60
2018-04-13T04:16:24.758Z,52.30
2018-04-13T04:17:27.875Z,58.00
2018-04-13T04:18:31.255Z,52.55
2018-04-13T04:19:45.935Z,52.85
2018-04-13T04:21:00.762Z,54.03
2018-04-13T04:22:15.618Z,50.53
2018-04-13T04:23:30.515Z,53.58
2018-04-13T04:24:45.626Z,53.20
2018-04-13T04:26:00.352Z,50.33
2018-04-13T04:27:03.406Z,48.63
2018-04-13T04:28:06.450Z,50.97
2018-04-13T04:29:09.563Z,50.78
2018-04-13T04:30:12.638Z,50.65
2018-04-13T04:31:15.996Z,50.55
2018-04-13T04:32:19.083Z,53.40
2018-04-13T04:33:22.133Z,50.80
2018-04-13T04:34:25.287Z,51.33
2018-04-13T04:35:28.346Z,51.28
2018-04-13T04:36:31.456Z,52.15
2018-04-13T04:37:34.610Z,54.85
2018-04-13T04:38:37.681Z,53.87
2018-04-13T04:39:40.722Z,53.28
2018-04-13T04:40:43.770Z,51.15
2018-04-13T04:41:46.846Z,53.35
2018-04-13T04:42:49.944Z,52.08
2018-04-13T04:43:53.068Z,57.40
2018-04-13T04:44:56.223Z,52.80
2018-04-13T04:45:59.258Z,60.40
2018-04-13T04:47:02.350Z,57.10
2018-04-13T04:48:05.444Z,61.85
2018-04-13T04:49:08.487Z,61.95
2018-04-13T04:50:11.526Z,63.90
2018-04-13T04:51:14.810Z,66.50
2018-04-13T04:52:17.923Z,67.35
2018-04-13T04:53:21.041Z,70.50
2018-04-13T04:54:24.588Z,74.87
2018-04-13T04:55:27.722Z,68.95
2018-04-13T04:56:30.869Z,69.55
2018-04-13T04:57:34.221Z,68.00
2018-04-13T04:58:37.435Z,69.20
2018-04-13T04:59:40.580Z,67.18
2018-04-13T05:00:43.666Z,68.40
2018-04-13T05:01:46.767Z,74.05
2018-04-13T05:02:49.850Z,74.10
2018-04-13T05:03:52.902Z,72.12
2018-04-13T05:04:56.012Z,73.25
2018-04-13T05:05:59.063Z,77.78
2018-04-13T05:07:02.107Z,72.70
2018-04-13T05:08:05.220Z,72.25
2018-04-13T05:09:08.262Z,67.28
2018-04-13T05:10:11.407Z,71.68
2018-04-13T05:11:14.492Z,75.43
2018-04-13T05:12:17.576Z,73.15
2018-04-13T05:13:20.704Z,72.50
2018-04-13T05:14:23.953Z,81.72
2018-04-13T05:15:27.049Z,79.30
2018-04-13T05:16:30.159Z,75.18
2018-04-13T05:17:33.234Z,74.45
2018-04-13T05:18:36.361Z,68.93
2018-04-13T05:19:39.498Z,74.50
2018-04-13T05:20:42.632Z,74.68
2018-04-13T05:21:45.703Z,72.68
2018-04-13T05:22:48.749Z,72.87
2018-04-13T05:23:51.862Z,72.15
2018-04-13T05:24:55.489Z,75.57
2018-04-13T05:25:58.586Z,77.22
2018-04-13T05:27:01.645Z,71.65
2018-04-13T05:28:04.706Z,76.80
2018-04-13T05:29:07.857Z,74.85
2018-04-13T05:30:11.026Z,77.22
2018-04-13T05:31:14.434Z,74.80
2018-04-13T05:32:17.732Z,70.70
2018-04-13T05:33:21.287Z,71.03
2018-04-13T05:34:24.470Z,72.15
2018-04-13T05:35:27.562Z,68.03
2018-04-13T05:36:30.647Z,69.80
2018-04-13T05:37:33.675Z,76.70
2018-04-13T05:38:37.022Z,66.20
2018-04-13T05:39:40.178Z,72.45
2018-04-13T05:40:43.279Z,73.03
2018-04-13T05:41:46.431Z,75.53
2018-04-13T05:42:49.626Z,75.57
2018-04-13T05:43:52.736Z,69.93
2018-04-13T05:44:55.809Z,68.97
2018-04-13T05:45:58.954Z,75.12
2018-04-13T05:47:02.000Z,72.53
2018-04-13T05:48:05.328Z,70.12
2018-04-13T05:49:08.399Z,70.65
2018-04-13T05:50:11.494Z,73.72
2018-04-13T05:51:14.939Z,75.00
2018-04-13T05:52:18.119Z,74.93
2018-04-13T05:53:21.294Z,73.85
2018-04-13T05:54:24.363Z,72.97
2018-04-13T05:55:27.539Z,72.75
2018-04-13T05:56:30.612Z,74.05
2018-04-13T05:57:33.685Z,72.60
2018-04-13T05:58:36.817Z,72.40
2018-04-13T05:59:39.861Z,74.60
2018-04-13T06:00:43.451Z,77.97
2018-04-13T06:01:46.789Z,79.05
2018-04-13T06:02:49.943Z,80.47
2018-04-13T06:03:53.026Z,76.05
2018-04-13T06:04:56.090Z,71.57
2018-04-13T06:05:59.219Z,71.55
2018-04-13T06:07:02.324Z,75.18
2018-04-13T06:08:05.387Z,66.55
2018-04-13T06:09:08.508Z,69.45
2018-04-13T06:10:11.631Z,68.97
2018-04-13T06:11:14.854Z,73.57
2018-04-13T06:12:17.900Z,68.93
2018-04-13T06:13:20.981Z,74.57
2018-04-13T06:14:23.998Z,74.03
2018-04-13T06:15:27.129Z,72.00
2018-04-13T06:16:30.245Z,72.28
2018-04-13T06:17:33.338Z,69.30
2018-04-13T06:18:36.458Z,67.70
2018-04-13T06:19:39.555Z,71.28
2018-04-13T06:20:42.691Z,65.65
2018-04-13T06:21:45.863Z,61.33
2018-04-13T06:22:48.908Z,61.85
2018-04-13T06:23:51.992Z,60.60
2018-04-13T06:24:55.039Z,64.80
2018-04-13T06:25:58.085Z,60.88
2018-04-13T06:27:01.257Z,55.83
2018-04-13T06:28:04.404Z,60.85
2018-04-13T06:29:07.515Z,59.42
2018-04-13T06:30:10.604Z,60.45
2018-04-13T06:31:13.686Z,63.03
2018-04-13T06:32:16.803Z,59.70
2018-04-13T06:33:19.900Z,59.25
2018-04-13T06:34:23.066Z,62.83
2018-04-13T06:35:26.272Z,63.90
2018-04-13T06:36:29.551Z,60.63
2018-04-13T06:37:32.963Z,63.85
2018-04-13T06:38:36.151Z,63.40
2018-04-13T06:39:39.261Z,60.65
2018-04-13T06:40:42.362Z,59.47
2018-04-13T06:41:45.422Z,58.08
2018-04-13T06:42:48.506Z,59.10
2018-04-13T06:43:51.574Z,60.88
2018-04-13T06:44:54.734Z,60.92
2018-04-13T06:45:57.833Z,60.85
2018-04-13T06:47:00.950Z,62.25
2018-04-13T06:48:04.061Z,70.15
2018-04-13T06:49:07.101Z,69.00
2018-04-13T06:50:10.158Z,69.18
2018-04-13T06:51:13.230Z,70.30
2018-04-13T06:52:16.473Z,65.35
2018-04-13T06:53:19.566Z,61.35
2018-04-13T06:54:22.694Z,61.95
2018-04-13T06:55:25.897Z,64.55
2018-04-13T06:56:28.989Z,60.05
2018-04-13T06:57:32.069Z,62.78
2018-04-13T06:58:35.141Z,63.03
2018-04-13T06:59:38.267Z,62.70
2018-04-13T07:00:41.370Z,63.20
2018-04-13T07:01:44.424Z,60.10
2018-04-13T07:02:47.462Z,62.88
2018-04-13T07:03:50.543Z,61.75
2018-04-13T07:04:53.599Z,62.13
2018-04-13T07:05:56.737Z,62.85
2018-04-13T07:06:59.918Z,62.03
2018-04-13T07:08:03.036Z,62.42
2018-04-13T07:09:06.143Z,65.57
2018-04-13T07:10:09.315Z,66.22
2018-04-13T07:11:12.409Z,66.03
2018-04-13T07:12:15.546Z,65.57
2018-04-13T07:13:18.667Z,68.15
2018-04-13T07:14:21.727Z,69.35
2018-04-13T07:15:25.128Z,70.12
2018-04-13T07:16:28.209Z,68.60
2018-04-13T07:17:31.280Z,72.10
2018-04-13T07:18:34.371Z,76.82
2018-04-13T07:19:37.520Z,73.32
2018-04-13T07:20:40.746Z,67.78
2018-04-13T07:21:43.792Z,73.07
2018-04-13T07:22:47.143Z,68.97
2018-04-13T07:23:50.952Z,70.60
2018-04-13T07:24:54.069Z,71.80
2018-04-13T07:25:57.301Z,70.95
2018-04-13T07:27:00.327Z,73.07
2018-04-13T07:28:03.370Z,72.37
2018-04-13T07:29:06.527Z,74.72
2018-04-13T07:30:09.663Z,73.18
2018-04-13T07:31:12.739Z,73.12
2018-04-13T07:32:15.783Z,74.72
2018-04-13T07:33:18.846Z,73.05
2018-04-13T07:34:22.629Z,76.78
2018-04-13T07:35:25.054Z,72.43
2018-04-13T07:36:28.123Z,71.90
2018-04-13T07:37:31.306Z,73.93
2018-04-13T07:38:34.295Z,68.60
2018-04-13T07:39:37.502Z,77.05
2018-04-13T07:40:40.532Z,77.32
2018-04-13T07:41:43.591Z,71.78
2018-04-13T07:42:47.090Z,78.22
2018-04-13T07:43:50.043Z,71.03
2018-04-13T07:44:53.557Z,73.62
2018-04-13T07:45:56.472Z,79.90
2018-04-13T07:46:59.522Z,83.15
2018-04-13T07:48:02.563Z,70.12
2018-04-13T07:49:05.676Z,74.03
2018-04-13T07:50:08.849Z,73.97
2018-04-13T07:51:12.218Z,75.87
2018-04-13T07:52:15.273Z,72.82
2018-04-13T07:53:19.173Z,78.37
2018-04-13T07:54:22.199Z,74.07
2018-04-13T07:55:25.270Z,71.68
2018-04-13T07:56:28.350Z,73.07
2018-04-13T07:57:31.406Z,73.32
2018-04-13T07:58:34.514Z,75.62
2018-04-13T07:59:37.589Z,75.57
2018-04-13T08:00:40.708Z,74.07
2018-04-13T08:01:43.862Z,73.10
2018-04-13T08:02:46.906Z,80.32
2018-04-13T08:03:50.177Z,73.97
2018-04-13T08:04:53.237Z,75.03
2018-04-13T08:05:56.296Z,75.72
2018-04-13T08:06:59.414Z,71.10
2018-04-13T08:08:02.471Z,75.70
2018-04-13T08:09:06.253Z,74.62
2018-04-13T08:10:09.320Z,77.90
2018-04-13T08:11:12.536Z,76.57
2018-04-13T08:12:15.626Z,76.07
2018-04-13T08:13:18.981Z,74.82
2018-04-13T08:14:21.762Z,73.68
2018-04-13T08:15:24.805Z,73.05
2018-04-13T08:16:27.889Z,68.90
2018-04-13T08:17:31.086Z,75.05
2018-04-13T08:18:34.137Z,71.97
2018-04-13T08:19:37.223Z,74.53
2018-04-13T08:20:40.570Z,73.82
2018-04-13T08:21:43.611Z,74.80
2018-04-13T08:22:46.792Z,72.12
2018-04-13T08:23:49.936Z,63.05
2018-04-13T08:24:53.101Z,61.35
2018-04-13T08:25:56.199Z,65.50
2018-04-13T08:26:59.290Z,59.47
2018-04-13T08:28:02.410Z,65.93
2018-04-13T08:29:05.696Z,64.22
2018-04-13T08:30:09.267Z,61.70
2018-04-13T08:31:12.316Z,64.72
2018-04-13T08:32:15.453Z,62.60
2018-04-13T08:33:18.519Z,63.47
2018-04-13T08:34:21.667Z,63.00
2018-04-13T08:35:24.729Z,63.28
2018-04-13T08:36:27.825Z,61.83
2018-04-13T08:37:31.003Z,62.08
2018-04-13T08:38:34.354Z,62.15
2018-04-13T08:39:37.566Z,63.83
2018-04-13T08:40:40.730Z,64.35
2018-04-13T08:41:43.944Z,60.33
2018-04-13T08:42:46.978Z,63.05
2018-04-13T08:43:50.102Z,63.03
2018-04-13T08:44:53.176Z,61.60
2018-04-13T08:45:56.244Z,60.58
2018-04-13T08:46:59.527Z,59.90
2018-04-13T08:48:02.915Z,60.85
2018-04-13T08:49:06.157Z,60.58
2018-04-13T08:50:09.119Z,58.25
2018-04-13T08:51:12.221Z,61.78
2018-04-13T08:52:15.306Z,60.05
2018-04-13T08:53:18.574Z,60.78
2018-04-13T08:54:21.756Z,60.33
2018-04-13T08:55:24.841Z,56.40
2018-04-13T08:56:27.932Z,61.80
2018-04-13T08:57:30.992Z,58.03
2018-04-13T08:58:34.035Z,60.63
2018-04-13T08:59:37.165Z,61.65
2018-04-13T09:00:40.248Z,61.10
2018-04-13T09:01:43.413Z,62.80
2018-04-13T09:02:46.567Z,62.22
2018-04-13T09:03:49.627Z,56.83
2018-04-13T09:04:52.867Z,59.00
2018-04-13T09:05:55.941Z,59.13
2018-04-13T09:06:59.032Z,59.75
2018-04-13T09:08:02.121Z,56.30
2018-04-13T09:09:05.244Z,51.15
2018-04-13T09:10:08.592Z,52.83
2018-04-13T09:11:11.702Z,55.05
2018-04-13T09:12:14.840Z,52.03
2018-04-13T09:13:17.882Z,50.95
2018-04-13T09:14:20.928Z,48.40
2018-04-13T09:15:24.051Z,47.42
2018-04-13T09:16:27.139Z,49.83
2018-04-13T09:17:30.201Z,44.40
2018-04-13T09:18:33.482Z,45.25
2018-04-13T09:19:36.656Z,37.13
2018-04-13T09:20:39.751Z,37.80
2018-04-13T09:21:42.873Z,38.30
2018-04-13T09:22:45.907Z,37.90
2018-04-13T09:23:48.942Z,37.55
2018-04-13T09:24:52.007Z,36.22
2018-04-13T09:25:55.146Z,33.65
2018-04-13T09:26:58.401Z,31.05
2018-04-13T09:28:01.724Z,28.85
2018-04-13T09:29:04.578Z,29.80
2018-04-13T09:30:08.076Z,31.87
2018-04-13T09:31:11.155Z,31.58
2018-04-13T09:32:14.305Z,27.27
2018-04-13T09:33:17.372Z,28.17
2018-04-13T09:34:20.454Z,28.27
2018-04-13T09:35:23.521Z,26.90
2018-04-13T09:36:26.610Z,26.85
2018-04-13T09:37:29.689Z,25.37
2018-04-13T09:38:32.739Z,25.20
2018-04-13T09:39:35.783Z,23.08
2018-04-13T09:40:38.824Z,22.85
2018-04-13T09:41:41.912Z,21.50
2018-04-13T09:42:45.006Z,21.83
2018-04-13T09:43:48.089Z,22.05
2018-04-13T09:44:51.353Z,21.67
2018-04-13T09:45:55.013Z,22.50
2018-04-13T09:46:58.155Z,23.38
2018-04-13T09:48:01.305Z,22.45
2018-04-13T09:49:04.351Z,20.77
2018-04-13T09:50:07.655Z,20.85
2018-04-13T09:51:10.750Z,22.92
2018-04-13T09:52:13.848Z,22.77
2018-04-13T09:53:16.947Z,20.70
2018-04-13T09:55:29.796Z,22.60
2018-04-13T09:56:33.000Z,23.42
2018-04-13T09:57:36.084Z,22.58
2018-04-13T09:58:39.141Z,23.95
2018-04-13T09:59:42.181Z,22.98
2018-04-13T10:00:45.363Z,22.50
2018-04-13T10:01:48.415Z,25.70
2018-04-13T10:02:57.048Z,25.77
2018-04-13T10:04:14.999Z,25.55
2018-04-13T10:05:18.071Z,24.23
2018-04-13T10:06:21.139Z,25.42
2018-04-13T10:07:24.234Z,26.15
2018-04-13T10:08:27.290Z,27.17
2018-04-13T10:09:30.396Z,26.42
2018-04-13T10:10:33.502Z,26.80
2018-04-13T10:11:36.568Z,26.58
2018-04-13T10:12:40.088Z,27.95
2018-04-13T10:13:43.237Z,26.55
2018-04-13T10:14:46.291Z,26.33
2018-04-13T10:15:49.345Z,26.10
2018-04-13T10:16:52.606Z,26.85
2018-04-13T10:17:55.876Z,24.85
2018-04-13T10:18:58.930Z,25.33
2018-04-13T10:20:02.024Z,24.87
2018-04-13T10:21:05.193Z,23.58
2018-04-13T10:22:08.332Z,23.50
2018-04-13T10:23:11.724Z,21.42
2018-04-13T10:24:14.918Z,20.10
2018-04-13T10:25:18.024Z,20.15
2018-04-13T10:26:21.290Z,20.55
2018-04-13T10:27:24.418Z,20.08
2018-04-13T10:28:27.577Z,23.20
2018-04-13T10:29:30.777Z,22.52
2018-04-13T10:30:33.870Z,23.15
2018-04-13T10:31:36.985Z,24.65
2018-04-13T10:32:40.137Z,24.12
2018-04-13T10:33:43.370Z,24.02
2018-04-13T10:34:46.552Z,24.23
2018-04-13T10:35:49.675Z,25.00
2018-04-13T10:36:52.751Z,24.15
2018-04-13T10:37:55.915Z,27.00
2018-04-13T10:38:58.958Z,24.30
2018-04-13T10:40:02.102Z,23.60
2018-04-13T10:41:05.199Z,25.70
2018-04-13T10:42:08.265Z,23.00
2018-04-13T10:43:11.392Z,22.20
2018-04-13T10:44:14.479Z,23.40
2018-04-13T10:45:17.730Z,19.55
2018-04-13T10:46:20.897Z,20.62
2018-04-13T10:47:23.951Z,18.65
2018-04-13T10:48:26.978Z,17.73
2018-04-13T10:49:30.048Z,19.05
2018-04-13T10:50:33.396Z,16.35
2018-04-13T10:51:36.474Z,18.65
2018-04-13T10:52:39.610Z,17.98
2018-04-13T10:53:42.689Z,18.42
2018-04-13T10:54:47.250Z,17.05
2018-04-13T10:55:50.396Z,15.60
2018-04-13T10:56:53.494Z,17.73
2018-04-13T10:57:56.518Z,15.25
2018-04-13T10:58:59.674Z,16.00
2018-04-13T11:00:02.728Z,17.95
2018-04-13T11:01:05.843Z,17.37
2018-04-13T11:02:08.930Z,16.92
2018-04-13T11:03:11.983Z,17.87
2018-04-13T11:04:15.229Z,16.33
2018-04-13T11:05:18.343Z,18.48
2018-04-13T11:06:21.412Z,17.00
2018-04-13T11:07:24.480Z,16.90
2018-04-13T11:08:27.578Z,16.70
2018-04-13T11:09:30.668Z,17.23
2018-04-13T11:10:33.716Z,15.13
2018-04-13T11:11:36.805Z,15.68
2018-04-13T11:12:39.845Z,16.20
2018-04-13T11:13:42.958Z,17.12
2018-04-13T11:14:46.220Z,16.55
2018-04-13T11:15:49.413Z,15.20
2018-04-13T11:16:52.523Z,17.10
2018-04-13T11:17:55.768Z,14.50
2018-04-13T11:18:58.886Z,16.33
2018-04-13T11:20:01.954Z,15.35
2018-04-13T11:21:05.033Z,16.58
2018-04-13T11:22:08.138Z,15.82
2018-04-13T11:23:11.239Z,16.20
2018-04-13T11:24:14.309Z,15.85
2018-04-13T11:25:17.395Z,16.80
2018-04-13T11:26:20.529Z,15.65
2018-04-13T11:27:23.821Z,16.05
2018-04-13T11:28:26.885Z,16.48
2018-04-13T11:29:29.977Z,16.40
2018-04-13T11:30:33.079Z,14.90
2018-04-13T11:31:36.180Z,15.00
2018-04-13T11:32:39.312Z,14.27
2018-04-13T11:33:42.427Z,15.15
2018-04-13T11:34:45.570Z,14.63
2018-04-13T11:35:48.639Z,15.80
2018-04-13T11:36:51.769Z,15.40
2018-04-13T11:37:54.842Z,15.07
2018-04-13T11:38:57.908Z,14.38
2018-04-13T11:40:00.982Z,14.75
2018-04-13T11:41:04.006Z,15.55
2018-04-13T11:42:07.074Z,15.70
2018-04-13T11:43:10.119Z,15.05
2018-04-13T11:44:13.198Z,14.40
2018-04-13T11:45:16.303Z,14.70
2018-04-13T11:46:19.362Z,14.87
2018-04-13T11:47:22.506Z,15.65
2018-04-13T11:48:25.594Z,15.80
2018-04-13T11:49:28.663Z,14.65
2018-04-13T11:50:31.719Z,16.52
2018-04-13T11:51:34.984Z,14.65
2018-04-13T11:52:38.042Z,15.02
2018-04-13T11:53:41.125Z,13.07
2018-04-13T11:54:44.198Z,16.52
2018-04-13T11:55:47.474Z,14.23
2018-04-13T11:56:50.663Z,15.65
2018-04-13T11:57:53.703Z,15.15
2018-04-13T11:58:56.774Z,15.90
2018-04-13T11:59:59.848Z,14.30
2018-04-13T12:01:02.956Z,14.87
2018-04-13T12:02:06.087Z,14.73
2018-04-13T12:03:09.137Z,14.98
2018-04-13T12:04:12.218Z,14.90
2018-04-13T12:05:15.313Z,12.48
2018-04-13T12:06:18.395Z,14.50
2018-04-13T12:07:21.653Z,13.95
2018-04-13T12:08:24.795Z,13.20
2018-04-13T12:09:27.963Z,12.98
2018-04-13T12:10:31.054Z,14.52
2018-04-13T12:11:34.093Z,12.80
2018-04-13T12:12:37.364Z,12.10
2018-04-13T12:13:40.433Z,13.15
2018-04-13T12:14:43.531Z,12.27
2018-04-13T12:15:46.924Z,12.68
2018-04-13T12:16:50.140Z,11.65
2018-04-13T12:17:53.224Z,11.70
2018-04-13T12:18:56.325Z,10.32
2018-04-13T12:19:59.575Z,10.27
2018-04-13T12:21:02.867Z,10.63
2018-04-13T12:22:06.006Z,10.27
2018-04-13T12:23:09.095Z,10.00
2018-04-13T12:24:12.203Z,10.35
2018-04-13T12:25:15.322Z,9.63
2018-04-13T12:26:18.430Z,9.60
2018-04-13T12:27:21.457Z,10.02
2018-04-13T12:28:24.579Z,10.15
2018-04-13T12:29:27.702Z,8.70
2018-04-13T12:30:30.887Z,8.75
2018-04-13T12:31:33.980Z,8.93
2018-04-13T12:32:37.043Z,9.15
2018-04-13T12:33:40.130Z,8.70
2018-04-13T12:34:43.165Z,8.75
2018-04-13T12:35:46.291Z,8.93
2018-04-13T12:36:49.366Z,8.13
2018-04-13T12:37:52.504Z,8.45
2018-04-13T12:38:55.539Z,7.70
2018-04-13T12:39:58.611Z,8.02
2018-04-13T12:41:01.710Z,8.60
2018-04-13T12:42:04.882Z,7.90
2018-04-13T12:43:07.955Z,9.48
2018-04-13T12:44:11.012Z,8.27
2018-04-13T12:45:14.201Z,9.18
2018-04-13T12:46:17.454Z,8.30
2018-04-13T12:47:20.595Z,9.10
2018-04-13T12:48:23.803Z,8.27
2018-04-13T12:49:26.841Z,8.27
2018-04-13T12:50:29.904Z,8.27
2018-04-13T12:51:33.063Z,8.90
2018-04-13T12:52:36.478Z,8.52
2018-04-13T12:53:39.505Z,9.40
2018-04-13T12:54:42.816Z,8.90
2018-04-13T12:55:45.846Z,8.05
2018-04-13T12:56:49.064Z,9.38
2018-04-13T12:57:52.174Z,8.07
2018-04-13T12:58:55.244Z,8.80
2018-04-13T12:59:58.407Z,8.20
2018-04-13T13:01:01.507Z,8.57
2018-04-13T13:02:04.696Z,7.90
2018-04-13T13:03:07.815Z,7.03
2018-04-13T13:04:10.899Z,6.20
2018-04-13T13:05:14.005Z,5.97
2018-04-13T13:06:17.099Z,5.85
2018-04-13T13:07:20.193Z,4.97
2018-04-13T13:08:23.240Z,5.70
2018-04-13T13:09:26.309Z,6.50
2018-04-13T13:10:29.371Z,5.65
2018-04-13T13:11:32.463Z,5.62
2018-04-13T13:12:35.694Z,6.43
2018-04-13T13:13:38.778Z,5.80
2018-04-13T13:14:42.047Z,5.93
2018-04-13T13:15:45.123Z,5.85
2018-04-13T13:16:48.246Z,6.55
2018-04-13T13:17:51.357Z,6.45
2018-04-13T13:18:54.534Z,6.37
2018-04-13T13:19:57.541Z,5.55
2018-04-13T13:21:00.590Z,6.07
2018-04-13T13:22:03.661Z,5.40
2018-04-13T13:23:06.758Z,7.15
2018-04-13T13:24:09.961Z,6.62
2018-04-13T13:25:12.994Z,10.32
2018-04-13T13:26:16.054Z,6.20
2018-04-13T13:27:19.141Z,5.50
2018-04-13T13:28:22.284Z,6.55
2018-04-13T13:29:25.350Z,6.15
2018-04-13T13:30:28.374Z,5.70
2018-04-13T13:31:31.530Z,6.57
2018-04-13T13:32:34.638Z,6.15
2018-04-13T13:33:37.833Z,6.45
2018-04-13T13:34:40.963Z,5.93
2018-04-13T13:35:44.024Z,5.97
2018-04-13T13:36:47.065Z,6.45
2018-04-13T13:37:50.110Z,7.03
2018-04-13T13:38:53.310Z,8.10